KGMU/GMU METAR and TAF weather

Enter ICAO airport designator
Station Type Date Time Source
KGMU METAR 2022/06/27 16:53 UTC NOAA

KGMU 271653Z 00000KT 10SM SCT027 BKN110 29/21 A3012 RMK AO2 SLP187 T02940211


Station Type Date Time Source
KGMU Decoded METAR 2022/06/27 16:53 UTC NOAA

GREENVILLE DOWNTOWN AIRPORT , SC, United States (KGMU) 34-51N 82-21W 315M
Jun 27, 2022 - 12:53 PM EDT / 2022.06.27 1653 UTC
Wind: Calm:0
Visibility: 10 mile(s):0
Sky conditions: mostly cloudy
Temperature: 84.9 F (29.4 C)
Dew Point: 70.0 F (21.1 C)
Relative Humidity: 61%
Pressure (altimeter): 30.12 in. Hg (1019 hPa)
ob: KGMU 271653Z 00000KT 10SM SCT027 BKN110 29/21 A3012 RMK AO2 SLP187 T02940211
cycle: 17

Station Type Date Time Source
KGMU TAF 2022/06/27 12:36 UTC NOAA

TAF KGMU 271134Z 2712/2812 24005KT P6SM BKN110
FM271700 26007KT P6SM VCSH OVC060
TEMPO 2718/2722 4SM TSRA BR OVC025CB
FM272200 35004KT P6SM VCSH BKN080
FM280400 02003KT P6SM BKN090
FM280800 04005KT P6SM VCSH BKN060

Example: see airport list